sensor_id;sensor_type;location;lat;lon;timestamp;pressure;altitude;pressure_sealevel;temperature;humidity
59315;BME280;46521;50.160;20.802;2022-08-30T00:07:28;99988.56;;;16.01;62.48
59315;BME280;46521;50.160;20.802;2022-08-30T00:17:29;99994.67;;;15.95;62.53
59315;BME280;46521;50.160;20.802;2022-08-30T00:27:30;100002.94;;;16.00;62.78
59315;BME280;46521;50.160;20.802;2022-08-30T00:37:32;100000.31;;;15.79;62.82
59315;BME280;46521;50.160;20.802;2022-08-30T00:47:33;100001.06;;;15.73;63.24
59315;BME280;46521;50.160;20.802;2022-08-30T00:57:35;100005.27;;;15.60;63.52
59315;BME280;46521;50.160;20.802;2022-08-30T01:07:37;100006.01;;;15.76;63.38
59315;BME280;46521;50.160;20.802;2022-08-30T01:17:41;99998.13;;;15.89;63.40
59315;BME280;46521;50.160;20.802;2022-08-30T01:27:49;99988.56;;;16.01;63.26
59315;BME280;46521;50.160;20.802;2022-08-30T01:37:52;99994.21;;;15.85;63.85
59315;BME280;46521;50.160;20.802;2022-08-30T01:47:53;99994.25;;;15.92;63.59
59315;BME280;46521;50.160;20.802;2022-08-30T01:57:55;99986.36;;;15.77;63.85
59315;BME280;46521;50.160;20.802;2022-08-30T02:07:56;99979.90;;;15.43;64.50
59315;BME280;46521;50.160;20.802;2022-08-30T02:17:57;99977.67;;;15.25;64.64
59315;BME280;46521;50.160;20.802;2022-08-30T02:27:59;99983.20;;;15.02;64.97
59315;BME280;46521;50.160;20.802;2022-08-30T02:38:00;99979.00;;;14.92;65.19
59315;BME280;46521;50.160;20.802;2022-08-30T02:48:02;99982.98;;;14.82;65.02
59315;BME280;46521;50.160;20.802;2022-08-30T02:58:05;99982.05;;;14.89;65.43
59315;BME280;46521;50.160;20.802;2022-08-30T03:08:07;99975.13;;;14.95;65.13
59315;BME280;46521;50.160;20.802;2022-08-30T03:18:09;99981.02;;;14.90;65.39
59315;BME280;46521;50.160;20.802;2022-08-30T03:28:11;99985.08;;;14.86;65.87
59315;BME280;46521;50.160;20.802;2022-08-30T03:38:12;99986.45;;;14.82;65.98
59315;BME280;46521;50.160;20.802;2022-08-30T03:48:14;99997.59;;;14.71;66.18
59315;BME280;46521;50.160;20.802;2022-08-30T03:58:15;99998.53;;;14.48;66.11
59315;BME280;46521;50.160;20.802;2022-08-30T04:08:16;100017.71;;;14.44;66.38
59315;BME280;46521;50.160;20.802;2022-08-30T04:18:18;100014.57;;;14.40;66.47
59315;BME280;46521;50.160;20.802;2022-08-30T04:28:20;100027.03;;;14.54;66.48
59315;BME280;46521;50.160;20.802;2022-08-30T04:38:21;100038.81;;;14.45;67.11
59315;BME280;46521;50.160;20.802;2022-08-30T04:48:23;100050.63;;;14.57;67.50
59315;BME280;46521;50.160;20.802;2022-08-30T04:58:24;100055.13;;;14.87;67.82
59315;BME280;46521;50.160;20.802;2022-08-30T05:08:26;100042.66;;;15.24;67.92
59315;BME280;46521;50.160;20.802;2022-08-30T05:18:27;100049.14;;;15.79;67.30
59315;BME280;46521;50.160;20.802;2022-08-30T05:28:29;100050.66;;;16.17;67.75
59315;BME280;46521;50.160;20.802;2022-08-30T05:38:30;100059.81;;;16.71;66.98
59315;BME280;46521;50.160;20.802;2022-08-30T05:48:33;100074.62;;;17.28;67.08
59315;BME280;46521;50.160;20.802;2022-08-30T05:58:35;100071.41;;;17.87;66.04
59315;BME280;46521;50.160;20.802;2022-08-30T06:08:36;100073.45;;;18.38;65.85
59315;BME280;46521;50.160;20.802;2022-08-30T06:18:38;100068.47;;;19.20;65.37
59315;BME280;46521;50.160;20.802;2022-08-30T06:28:40;100077.27;;;19.34;64.86
59315;BME280;46521;50.160;20.802;2022-08-30T06:38:42;100081.55;;;19.42;64.72
59315;BME280;46521;50.160;20.802;2022-08-30T06:48:45;100088.09;;;19.14;64.50
59315;BME280;46521;50.160;20.802;2022-08-30T06:58:46;100094.13;;;19.03;64.51
59315;BME280;46521;50.160;20.802;2022-08-30T07:08:48;100090.14;;;19.12;64.40
59315;BME280;46521;50.160;20.802;2022-08-30T07:18:50;100088.05;;;19.53;63.95
59315;BME280;46521;50.160;20.802;2022-08-30T07:28:54;100091.50;;;19.98;63.70
59315;BME280;46521;50.160;20.802;2022-08-30T07:39:21;100091.48;;;20.67;63.18
59315;BME280;46521;50.160;20.802;2022-08-30T07:59:25;100080.55;;;22.49;61.50
59315;BME280;46521;50.160;20.802;2022-08-30T08:09:27;100076.39;;;23.40;60.42
59315;BME280;46521;50.160;20.802;2022-08-30T08:19:28;100071.29;;;23.72;58.57
59315;BME280;46521;50.160;20.802;2022-08-30T08:29:30;100077.68;;;23.83;57.76
59315;BME280;46521;50.160;20.802;2022-08-30T08:39:31;100074.89;;;23.15;58.17
59315;BME280;46521;50.160;20.802;2022-08-30T08:49:34;100075.70;;;23.62;57.58
59315;BME280;46521;50.160;20.802;2022-08-30T08:59:36;100077.20;;;24.20;56.64
59315;BME280;46521;50.160;20.802;2022-08-30T09:09:39;100065.48;;;24.54;55.72
59315;BME280;46521;50.160;20.802;2022-08-30T09:19:45;100066.13;;;25.05;55.19
59315;BME280;46521;50.160;20.802;2022-08-30T09:30:00;100061.58;;;24.44;54.66
59315;BME280;46521;50.160;20.802;2022-08-30T09:40:09;100065.08;;;23.72;54.63
59315;BME280;46521;50.160;20.802;2022-08-30T09:50:19;100058.13;;;24.49;54.40
59315;BME280;46521;50.160;20.802;2022-08-30T10:00:24;100055.08;;;25.34;53.22
59315;BME280;46521;50.160;20.802;2022-08-30T10:10:48;100054.16;;;24.35;53.05
59315;BME280;46521;50.160;20.802;2022-08-30T10:41:47;100037.72;;;23.34;53.89
59315;BME280;46521;50.160;20.802;2022-08-30T10:52:24;100025.80;;;23.81;53.61
59315;BME280;46521;50.160;20.802;2022-08-30T11:02:54;100021.25;;;24.60;52.59
59315;BME280;46521;50.160;20.802;2022-08-30T11:13:01;100023.16;;;24.20;52.39
59315;BME280;46521;50.160;20.802;2022-08-30T11:54:24;100010.41;;;24.82;51.78
59315;BME280;46521;50.160;20.802;2022-08-30T12:04:44;99996.39;;;24.41;51.41
59315;BME280;46521;50.160;20.802;2022-08-30T12:14:49;99993.52;;;25.24;49.88
59315;BME280;46521;50.160;20.802;2022-08-30T12:24:53;99965.53;;;26.26;48.60
59315;BME280;46521;50.160;20.802;2022-08-30T12:34:57;99966.60;;;26.25;48.13
59315;BME280;46521;50.160;20.802;2022-08-30T12:45:04;99958.16;;;25.73;47.82
59315;BME280;46521;50.160;20.802;2022-08-30T12:55:22;99963.00;;;25.29;47.88
59315;BME280;46521;50.160;20.802;2022-08-30T13:15:41;99935.30;;;24.89;48.25
59315;BME280;46521;50.160;20.802;2022-08-30T13:25:42;99916.60;;;25.20;47.24
59315;BME280;46521;50.160;20.802;2022-08-30T13:35:44;99911.89;;;25.38;46.41
59315;BME280;46521;50.160;20.802;2022-08-30T13:45:45;99906.30;;;25.49;45.30
59315;BME280;46521;50.160;20.802;2022-08-30T13:55:46;99909.19;;;25.05;45.65
59315;BME280;46521;50.160;20.802;2022-08-30T14:05:48;99898.26;;;24.62;45.52
59315;BME280;46521;50.160;20.802;2022-08-30T14:15:50;99894.20;;;24.65;44.77
59315;BME280;46521;50.160;20.802;2022-08-30T14:25:53;99883.37;;;24.38;45.27
59315;BME280;46521;50.160;20.802;2022-08-30T14:35:54;99876.34;;;24.15;45.03
59315;BME280;46521;50.160;20.802;2022-08-30T14:45:59;99869.45;;;24.02;45.67
59315;BME280;46521;50.160;20.802;2022-08-30T14:56:06;99863.64;;;24.15;46.06
59315;BME280;46521;50.160;20.802;2022-08-30T15:06:09;99865.97;;;24.28;45.88
59315;BME280;46521;50.160;20.802;2022-08-30T15:16:16;99869.63;;;24.17;45.74
59315;BME280;46521;50.160;20.802;2022-08-30T15:26:19;99871.83;;;24.20;45.78
59315;BME280;46521;50.160;20.802;2022-08-30T15:36:20;99876.91;;;23.95;46.27
59315;BME280;46521;50.160;20.802;2022-08-30T15:56:30;99866.04;;;23.50;46.39
59315;BME280;46521;50.160;20.802;2022-08-30T16:06:34;99873.84;;;23.30;46.33
59315;BME280;46521;50.160;20.802;2022-08-30T16:16:37;99859.80;;;23.11;46.47
59315;BME280;46521;50.160;20.802;2022-08-30T16:26:38;99862.53;;;22.99;46.26
59315;BME280;46521;50.160;20.802;2022-08-30T16:36:41;99856.98;;;22.89;46.73
59315;BME280;46521;50.160;20.802;2022-08-30T16:46:42;99859.42;;;22.73;46.69
59315;BME280;46521;50.160;20.802;2022-08-30T16:56:44;99866.42;;;22.57;47.43
59315;BME280;46521;50.160;20.802;2022-08-30T17:06:47;99871.29;;;22.43;47.71
59315;BME280;46521;50.160;20.802;2022-08-30T17:16:49;99880.95;;;22.16;48.02
59315;BME280;46521;50.160;20.802;2022-08-30T17:26:50;99886.73;;;21.95;48.05
59315;BME280;46521;50.160;20.802;2022-08-30T17:36:52;99909.83;;;21.80;48.70
59315;BME280;46521;50.160;20.802;2022-08-30T17:46:56;99927.98;;;21.60;49.10
59315;BME280;46521;50.160;20.802;2022-08-30T17:56:58;99942.31;;;21.42;49.50
59315;BME280;46521;50.160;20.802;2022-08-30T18:07:00;99953.89;;;21.31;49.76
59315;BME280;46521;50.160;20.802;2022-08-30T18:17:01;99964.64;;;21.19;50.23
59315;BME280;46521;50.160;20.802;2022-08-30T18:27:03;99985.66;;;21.11;50.44
59315;BME280;46521;50.160;20.802;2022-08-30T18:37:05;99979.57;;;21.03;50.96
59315;BME280;46521;50.160;20.802;2022-08-30T18:47:06;99983.86;;;20.93;51.01
59315;BME280;46521;50.160;20.802;2022-08-30T18:57:09;99986.35;;;20.76;51.57
59315;BME280;46521;50.160;20.802;2022-08-30T19:07:13;99991.49;;;20.59;51.72
59315;BME280;46521;50.160;20.802;2022-08-30T19:17:14;99986.72;;;20.42;51.87
59315;BME280;46521;50.160;20.802;2022-08-30T19:27:17;99992.62;;;20.32;52.03
59315;BME280;46521;50.160;20.802;2022-08-30T19:37:19;99984.55;;;20.14;52.39
59315;BME280;46521;50.160;20.802;2022-08-30T19:47:20;99987.23;;;19.95;52.49
59315;BME280;46521;50.160;20.802;2022-08-30T19:57:22;99992.72;;;19.82;52.70
59315;BME280;46521;50.160;20.802;2022-08-30T20:07:23;99986.58;;;19.75;52.78
59315;BME280;46521;50.160;20.802;2022-08-30T20:17:25;99987.89;;;19.66;53.18
59315;BME280;46521;50.160;20.802;2022-08-30T20:27:27;99974.73;;;19.57;53.44
59315;BME280;46521;50.160;20.802;2022-08-30T20:37:29;99984.99;;;19.42;53.76
59315;BME280;46521;50.160;20.802;2022-08-30T20:47:33;99989.44;;;19.23;54.04
59315;BME280;46521;50.160;20.802;2022-08-30T20:57:37;99992.92;;;18.91;54.53
59315;BME280;46521;50.160;20.802;2022-08-30T21:07:38;100000.38;;;18.31;55.03
59315;BME280;46521;50.160;20.802;2022-08-30T21:17:40;100001.87;;;17.73;55.63
59315;BME280;46521;50.160;20.802;2022-08-30T21:27:41;100019.16;;;17.57;56.18
59315;BME280;46521;50.160;20.802;2022-08-30T21:37:44;100010.72;;;17.60;56.51
59315;BME280;46521;50.160;20.802;2022-08-30T21:47:45;100013.80;;;17.64;57.13
59315;BME280;46521;50.160;20.802;2022-08-30T21:57:46;100020.59;;;17.73;57.25
59315;BME280;46521;50.160;20.802;2022-08-30T22:07:48;100020.78;;;17.45;57.39
59315;BME280;46521;50.160;20.802;2022-08-30T22:17:49;100026.44;;;17.02;57.79
59315;BME280;46521;50.160;20.802;2022-08-30T22:27:51;100023.55;;;16.90;58.21
59315;BME280;46521;50.160;20.802;2022-08-30T22:37:52;100018.20;;;16.90;58.53
59315;BME280;46521;50.160;20.802;2022-08-30T22:58:24;100022.61;;;17.31;59.30
59315;BME280;46521;50.160;20.802;2022-08-30T23:08:26;100012.94;;;17.30;59.32
59315;BME280;46521;50.160;20.802;2022-08-30T23:18:27;100004.70;;;17.18;59.51
59315;BME280;46521;50.160;20.802;2022-08-30T23:28:28;100007.38;;;17.25;59.19
59315;BME280;46521;50.160;20.802;2022-08-30T23:38:48;99999.56;;;17.30;59.98
59315;BME280;46521;50.160;20.802;2022-08-30T23:49:08;99989.88;;;17.02;59.94
59315;BME280;46521;50.160;20.802;2022-08-30T23:59:29;99984.89;;;16.86;60.52
